Time;durP1;ratioP1;P1;durP2;ratioP2;P2;SDS_P1;SDS_P2;PMS_P1;PMS_P2;Temp;Humidity;BMP_temperature;BMP_pressure;BME280_temperature;BME280_humidity;BME280_pressure;Samples;Min_cycle;Max_cycle;Signal;HPM_P1;HPM_P2
2022/07/07 17:43:25;;;;;;;7.50;1.45;;;;;;;;;;5148556;27;20784;-63
2022/07/07 17:45:52;;;;;;;8.00;1.40;;;;;;;;;;5133865;27;20526;-64
2022/07/07 17:48:18;;;;;;;7.75;3.13;;;;;;;;;;5129150;27;20083;-64
2022/07/07 17:50:45;;;;;;;9.40;1.98;;;;;;;;;;5129596;27;20151;-64
2022/07/07 17:53:12;;;;;;;6.95;2.03;;;;;;;;;;5133045;27;20055;-65
2022/07/07 17:55:39;;;;;;;6.72;1.45;;;;;;;;;;5137180;27;20537;-65
2022/07/07 17:58:05;;;;;;;11.13;2.20;;;;;;;;;;5141977;27;20063;-65
2022/07/07 18:00:32;;;;;;;8.68;1.70;;;;;;;;;;5128308;27;20048;-65
2022/07/07 18:02:58;;;;;;;7.18;1.77;;;;;;;;;;5128659;27;20133;-64
2022/07/07 18:05:24;;;;;;;4.95;1.73;;;;;;;;;;5129755;27;20052;-64
2022/07/07 18:07:51;;;;;;;7.55;1.73;;;;;;;;;;5128901;27;20058;-65
2022/07/07 18:10:17;;;;;;;8.43;1.85;;;;;;;;;;5134718;27;20442;-65
2022/07/07 18:12:43;;;;;;;5.97;1.52;;;;;;;;;;5136756;27;20052;-65
2022/07/07 18:15:10;;;;;;;8.95;1.63;;;;;;;;;;5135389;27;20054;-64
2022/07/07 18:17:36;;;;;;;7.47;1.70;;;;;;;;;;5128817;27;20055;-65
2022/07/07 18:20:03;;;;;;;9.90;2.50;;;;;;;;;;5127424;27;20079;-64
2022/07/07 18:22:30;;;;;;;5.55;1.58;;;;;;;;;;5127990;27;20060;-64
2022/07/07 18:24:57;;;;;;;5.50;1.52;;;;;;;;;;5128994;27;20055;-65
2022/07/07 18:27:23;;;;;;;7.65;2.28;;;;;;;;;;5133167;27;20052;-64
2022/07/07 18:29:50;;;;;;;8.93;1.85;;;;;;;;;;5137844;27;20052;-66
2022/07/07 18:32:17;;;;;;;8.32;2.05;;;;;;;;;;5127816;27;20048;-65
2022/07/07 18:34:43;;;;;;;7.20;2.00;;;;;;;;;;5128207;27;20499;-66
2022/07/07 18:37:09;;;;;;;11.70;3.42;;;;;;;;;;5136403;27;20051;-65
2022/07/07 18:39:36;;;;;;;10.02;2.17;;;;;;;;;;5134115;27;20048;-66
2022/07/07 18:42:02;;;;;;;10.68;2.13;;;;;;;;;;5109380;27;20062;-65
2022/07/07 18:44:28;;;;;;;11.15;2.15;;;;;;;;;;5127248;27;20139;-65
2022/07/07 18:46:55;;;;;;;11.57;2.35;;;;;;;;;;5127774;27;20056;-66
2022/07/07 18:49:21;;;;;;;6.75;1.65;;;;;;;;;;5144200;27;20065;-66
2022/07/07 18:51:47;;;;;;;10.32;2.42;;;;;;;;;;5143060;27;20422;-67
2022/07/07 18:54:14;;;;;;;9.13;2.22;;;;;;;;;;5126165;27;20047;-65
2022/07/07 18:56:41;;;;;;;13.35;2.97;;;;;;;;;;5113400;27;20058;-65
2022/07/07 18:59:08;;;;;;;10.02;2.10;;;;;;;;;;5112922;27;20048;-65
2022/07/07 19:01:34;;;;;;;9.45;1.98;;;;;;;;;;5105282;27;20047;-65
2022/07/07 19:04:01;;;;;;;10.85;2.08;;;;;;;;;;5112915;28;20147;-65
2022/07/07 19:06:28;;;;;;;5.40;1.60;;;;;;;;;;5113050;28;20148;-66
2022/07/07 19:08:54;;;;;;;7.93;1.80;;;;;;;;;;5122450;27;20575;-66
2022/07/07 19:11:24;;;;;;;6.22;1.85;;;;;;;;;;5133200;27;20052;-65
2022/07/07 19:13:51;;;;;;;9.25;1.92;;;;;;;;;;5118134;27;20436;-65
2022/07/07 19:16:18;;;;;;;4.95;1.92;;;;;;;;;;5116562;27;20058;-64
2022/07/07 19:18:44;;;;;;;8.07;2.90;;;;;;;;;;5114708;27;20993;-64
2022/07/07 19:21:11;;;;;;;4.07;1.25;;;;;;;;;;5102480;28;20048;-65
2022/07/07 19:23:37;;;;;;;9.23;1.35;;;;;;;;;;5107853;28;20513;-65
2022/07/07 19:26:05;;;;;;;18.98;2.47;;;;;;;;;;5112133;27;20057;-65
2022/07/07 19:28:31;;;;;;;8.32;2.42;;;;;;;;;;5113238;28;20482;-64
2022/07/07 19:30:58;;;;;;;9.10;1.80;;;;;;;;;;5109998;27;20067;-65
2022/07/07 19:33:24;;;;;;;4.70;1.40;;;;;;;;;;5115575;27;20058;-64
2022/07/07 19:35:51;;;;;;;4.30;1.50;;;;;;;;;;5114986;27;20055;-65
2022/07/07 19:38:18;;;;;;;4.60;1.23;;;;;;;;;;5132539;27;20078;-64
2022/07/07 19:40:44;;;;;;;12.95;2.25;;;;;;;;;;5119242;27;20048;-64
2022/07/07 19:43:10;;;;;;;5.75;1.83;;;;;;;;;;5112475;28;20060;-63
2022/07/07 19:45:37;;;;;;;6.88;1.73;;;;;;;;;;5112808;27;20059;-64
2022/07/07 19:48:03;;;;;;;13.82;2.25;;;;;;;;;;5113680;27;20099;-64
2022/07/07 19:50:30;;;;;;;8.00;1.73;;;;;;;;;;5120461;27;20157;-64
2022/07/07 19:52:56;;;;;;;10.02;2.78;;;;;;;;;;5118426;27;20139;-64
2022/07/07 19:55:23;;;;;;;9.63;2.17;;;;;;;;;;5116692;27;20542;-66
2022/07/07 19:57:49;;;;;;;9.75;1.33;;;;;;;;;;5111327;27;20155;-65
2022/07/07 20:00:16;;;;;;;5.07;1.50;;;;;;;;;;5104057;28;20052;-67
2022/07/07 20:02:42;;;;;;;6.32;2.30;;;;;;;;;;5112947;28;20543;-67
2022/07/07 20:05:09;;;;;;;8.02;1.60;;;;;;;;;;5111928;28;20518;-66
2022/07/07 20:07:35;;;;;;;9.57;1.88;;;;;;;;;;5112529;28;20055;-67
2022/07/07 20:10:02;;;;;;;8.70;2.00;;;;;;;;;;5110955;27;20054;-66
2022/07/07 20:12:28;;;;;;;6.65;2.28;;;;;;;;;;5111321;27;21104;-66
2022/07/07 20:14:55;;;;;;;7.57;1.67;;;;;;;;;;5109985;28;20521;-66
2022/07/07 20:17:21;;;;;;;9.82;2.53;;;;;;;;;;5114455;27;20511;-67
2022/07/07 20:19:47;;;;;;;14.82;1.92;;;;;;;;;;5112882;27;20060;-67
2022/07/07 20:22:14;;;;;;;10.45;1.52;;;;;;;;;;5110321;27;20059;-67
2022/07/07 20:24:40;;;;;;;6.78;1.73;;;;;;;;;;5112427;27;20495;-66
2022/07/07 20:27:06;;;;;;;7.65;2.17;;;;;;;;;;5110382;27;21884;-67
2022/07/07 20:29:33;;;;;;;8.65;2.05;;;;;;;;;;5121032;27;20054;-66
2022/07/07 20:32:00;;;;;;;5.03;1.73;;;;;;;;;;5115491;27;20059;-67
2022/07/07 20:34:26;;;;;;;6.97;1.58;;;;;;;;;;5111230;27;20175;-67
2022/07/07 20:36:53;;;;;;;8.25;2.05;;;;;;;;;;5112344;27;20498;-67
2022/07/07 20:39:19;;;;;;;7.10;1.95;;;;;;;;;;5108046;28;20098;-67
2022/07/07 20:41:46;;;;;;;10.90;2.38;;;;;;;;;;5106837;28;20507;-68
2022/07/07 20:44:12;;;;;;;9.38;2.17;;;;;;;;;;5104552;28;20080;-67
2022/07/07 20:46:38;;;;;;;8.70;2.00;;;;;;;;;;5106065;28;20056;-67
2022/07/07 20:49:05;;;;;;;7.45;2.22;;;;;;;;;;5110574;28;20058;-67
2022/07/07 20:51:32;;;;;;;10.85;2.55;;;;;;;;;;5107885;27;21010;-67
2022/07/07 20:53:59;;;;;;;8.25;1.92;;;;;;;;;;5106738;27;20494;-67
2022/07/07 20:56:25;;;;;;;7.32;1.52;;;;;;;;;;5110897;27;20093;-68
2022/07/07 20:58:52;;;;;;;9.25;2.17;;;;;;;;;;5104487;27;20083;-67
2022/07/07 21:01:18;;;;;;;8.05;1.80;;;;;;;;;;5113019;27;20906;-67
2022/07/07 21:03:45;;;;;;;8.25;1.98;;;;;;;;;;5108701;27;20094;-67
2022/07/07 21:06:12;;;;;;;8.80;2.75;;;;;;;;;;5121890;27;20059;-67
2022/07/07 21:08:39;;;;;;;11.90;2.05;;;;;;;;;;5112931;27;20938;-67
2022/07/07 21:11:05;;;;;;;11.73;2.17;;;;;;;;;;5080902;27;20044;-67
2022/07/07 21:13:32;;;;;;;12.38;2.50;;;;;;;;;;5122060;27;20056;-67
2022/07/07 21:15:59;;;;;;;7.80;2.03;;;;;;;;;;5128037;27;20140;-67
2022/07/07 21:18:28;;;;;;;6.95;2.22;;;;;;;;;;5099882;27;20098;-68
2022/07/07 21:20:55;;;;;;;5.82;1.77;;;;;;;;;;5109814;27;20062;-68
2022/07/07 21:23:22;;;;;;;12.60;2.65;;;;;;;;;;5093160;27;20056;-67
2022/07/07 21:25:48;;;;;;;7.35;1.65;;;;;;;;;;5112282;27;20058;-68
2022/07/07 21:28:14;;;;;;;6.97;1.98;;;;;;;;;;5117196;27;20495;-68
2022/07/07 21:30:41;;;;;;;7.40;1.60;;;;;;;;;;5102869;27;20054;-68
2022/07/07 21:33:13;;;;;;;5.70;1.73;;;;;;;;;;5093248;27;20134;-67
2022/07/07 21:35:39;;;;;;;7.53;2.00;;;;;;;;;;5109575;27;20134;-68
2022/07/07 21:38:06;;;;;;;5.15;1.48;;;;;;;;;;5111190;28;20054;-68
2022/07/07 21:40:32;;;;;;;9.38;1.85;;;;;;;;;;5112119;27;20466;-68
2022/07/07 21:42:58;;;;;;;5.22;1.52;;;;;;;;;;5112658;27;20068;-67
2022/07/07 21:45:25;;;;;;;9.48;1.55;;;;;;;;;;5111593;27;20136;-68
2022/07/07 21:47:51;;;;;;;5.72;1.65;;;;;;;;;;5109728;28;20056;-67
2022/07/07 21:50:17;;;;;;;4.82;1.15;;;;;;;;;;5100159;28;20044;-67
2022/07/07 21:52:44;;;;;;;7.95;1.80;;;;;;;;;;5106092;28;20083;-67
2022/07/07 21:55:10;;;;;;;3.97;1.30;;;;;;;;;;5111879;28;20459;-66
2022/07/07 21:57:38;;;;;;;9.75;1.83;;;;;;;;;;5110151;27;20055;-68
2022/07/07 22:00:04;;;;;;;9.70;1.63;;;;;;;;;;5110893;28;20536;-68
2022/07/07 22:02:36;;;;;;;6.40;2.08;;;;;;;;;;5110323;27;20040;-68
2022/07/07 22:07:47;;;;;;;7.15;1.85;;;;;;;;;;5101261;28;20056;-67
2022/07/07 22:10:14;;;;;;;7.97;2.35;;;;;;;;;;5106221;27;20522;-68
2022/07/07 22:12:40;;;;;;;10.77;1.90;;;;;;;;;;5100335;28;20048;-68
2022/07/07 22:15:06;;;;;;;5.43;1.50;;;;;;;;;;5111066;27;20058;-67
2022/07/07 22:17:33;;;;;;;9.05;2.70;;;;;;;;;;5112220;27;20049;-67
2022/07/07 22:19:59;;;;;;;6.55;1.52;;;;;;;;;;5100050;28;20144;-67
2022/07/07 22:22:25;;;;;;;7.22;1.65;;;;;;;;;;5105515;27;20060;-67
2022/07/07 22:24:52;;;;;;;8.43;1.65;;;;;;;;;;5108044;27;20059;-68
2022/07/07 22:27:18;;;;;;;4.47;1.23;;;;;;;;;;5095455;27;20058;-68
2022/07/07 22:29:44;;;;;;;7.13;1.70;;;;;;;;;;5109988;27;20052;-68
2022/07/07 22:32:10;;;;;;;6.35;1.50;;;;;;;;;;5113722;27;20052;-69
2022/07/07 22:34:37;;;;;;;3.72;1.30;;;;;;;;;;5112319;28;20549;-69
2022/07/07 22:37:05;;;;;;;8.63;1.77;;;;;;;;;;5114654;28;20561;-67
2022/07/07 22:39:32;;;;;;;9.45;1.88;;;;;;;;;;5107487;28;20079;-67
2022/07/07 22:41:58;;;;;;;9.13;2.15;;;;;;;;;;5114289;28;20143;-69
2022/07/07 22:44:24;;;;;;;5.10;1.45;;;;;;;;;;5112392;28;20474;-68
2022/07/07 22:46:51;;;;;;;6.00;1.60;;;;;;;;;;5097039;28;20052;-68
2022/07/07 22:49:17;;;;;;;7.00;1.45;;;;;;;;;;5114248;27;20117;-68
2022/07/07 22:51:44;;;;;;;6.18;1.60;;;;;;;;;;5113526;28;20499;-68
2022/07/07 22:54:11;;;;;;;6.30;1.50;;;;;;;;;;5113780;28;20048;-68
2022/07/07 22:56:37;;;;;;;5.75;1.95;;;;;;;;;;5114284;28;20028;-69
2022/07/07 22:59:03;;;;;;;4.70;1.20;;;;;;;;;;5112872;27;20062;-67
2022/07/07 23:01:29;;;;;;;11.05;2.05;;;;;;;;;;5110491;28;20075;-68
2022/07/07 23:03:56;;;;;;;7.97;2.45;;;;;;;;;;5112480;28;20590;-67
2022/07/07 23:06:22;;;;;;;7.97;1.80;;;;;;;;;;5112383;28;20056;-67
2022/07/07 23:08:49;;;;;;;5.75;1.67;;;;;;;;;;5114880;27;20047;-67
2022/07/07 23:11:15;;;;;;;9.40;2.40;;;;;;;;;;5111522;28;20139;-68
2022/07/07 23:13:41;;;;;;;8.05;1.70;;;;;;;;;;5109821;28;20060;-66
2022/07/07 23:16:08;;;;;;;10.60;2.25;;;;;;;;;;5113222;28;20135;-67
2022/07/07 23:18:34;;;;;;;6.97;1.98;;;;;;;;;;5112781;28;20577;-68
2022/07/07 23:21:00;;;;;;;4.40;1.48;;;;;;;;;;5097014;28;20051;-67
2022/07/07 23:23:27;;;;;;;10.38;1.65;;;;;;;;;;5113746;27;20052;-68
2022/07/07 23:25:53;;;;;;;10.02;2.33;;;;;;;;;;5108234;27;20506;-68
2022/07/07 23:28:19;;;;;;;7.75;1.63;;;;;;;;;;5110748;28;20498;-69
2022/07/07 23:30:49;;;;;;;7.07;2.55;;;;;;;;;;5111357;28;20048;-68
2022/07/07 23:33:16;;;;;;;8.68;2.08;;;;;;;;;;5112430;27;20496;-68
2022/07/07 23:35:42;;;;;;;6.97;1.58;;;;;;;;;;5094836;28;20054;-68
2022/07/07 23:38:08;;;;;;;4.80;1.67;;;;;;;;;;5110860;27;20056;-67
2022/07/07 23:40:35;;;;;;;7.05;1.73;;;;;;;;;;5111787;28;20052;-68
2022/07/07 23:43:01;;;;;;;5.95;1.50;;;;;;;;;;5111974;28;20071;-68
2022/07/07 23:45:27;;;;;;;6.55;1.98;;;;;;;;;;5112754;27;20095;-67
2022/07/07 23:47:54;;;;;;;7.38;1.85;;;;;;;;;;5111248;27;20048;-68
2022/07/07 23:50:20;;;;;;;7.72;1.75;;;;;;;;;;5113226;27;20040;-68
2022/07/07 23:52:47;;;;;;;5.78;1.60;;;;;;;;;;5112311;27;20052;-68
2022/07/07 23:55:13;;;;;;;5.13;1.50;;;;;;;;;;5111968;27;20507;-68
2022/07/07 23:57:39;;;;;;;5.47;2.22;;;;;;;;;;5091935;28;20576;-68
